Sereno
Sereno
Poco nuvoloso
Poco nuvoloso
Sereno
Sereno
Sereno
Sereno
Sereno con velature
(°C)
31°
31°
30°
30°
30°
30°
29°
29°
28°
28°
26°
26°
24°
24°
23°
23°
22°
22°
(°C)
29°
29°
29°
29°
28°
26°
24°
23°
22°
NO
NO
NO
N
ENE
SE
SE
SSE
SSE
(km/h)
10-19
10-21
9-20
8-17
6-13
6-10
7-9
7-10
7-11
(mm)
0
0
0
0
0
0
0
0
0
(%)
0
0
0
0
0
0
0
0
0

Elevazione del sole

/ 42.3°
sun-icon
UV 6
04:09
21:38
Primo quarto (93°)
12:45
01:22

METAR per 55.31°N 61.5°E (USCC)

Ora Condizioni Temperatura/
Punto di rugiada
Vento Visibilità Meteo Nuvole Pressione Cambiamento Grezzo
VFR 31°C / 11°C 280º 6kt 9700m - Clouds and Visibility OK 1016 No Significant change USCC 141030Z 28003MPS CAVOK 31/11 Q1016 R27/000060 NOSIG RMK QFE742
VFR 31°C / 12°C 280º 6kt 9700m - Clouds and Visibility OK 1016 No Significant change USCC 141000Z 28003MPS CAVOK 31/12 Q1016 R27/000060 NOSIG RMK QFE742
VFR 30°C / 12°C 320º 6kt 9700m - Clouds and Visibility OK 1016 No Significant change USCC 140930Z 32003MPS CAVOK 30/12 Q1016 R27/000060 NOSIG RMK QFE742
VFR 30°C / 12°C 310º 6kt 9700m - Clouds and Visibility OK 1016 No Significant change USCC 140900Z 31003MPS CAVOK 30/12 Q1016 R27/000060 NOSIG RMK QFE742
VFR 30°C / 12°C 310º variable 270º to 340º 6kt 9700m - Clouds and Visibility OK 1017 No Significant change USCC 140830Z 31003MPS 270V340 CAVOK 30/12 Q1017 R27/000060 NOSIG RMK QFE742
VFR 31°C / 13°C 260º variable 230º to 310º 6kt 9700m - Clouds and Visibility OK 1017 No Significant change USCC 140800Z 26003MPS 230V310 CAVOK 31/13 Q1017 R27/000060 NOSIG RMK QFE742
VFR 30°C / 12°C 290º 6kt 9700m - Clouds and Visibility OK 1017 No Significant change USCC 140730Z 29003MPS CAVOK 30/12 Q1017 R27/000060 NOSIG RMK QFE742
VFR 30°C / 12°C 300º 2kt 9700m - Clouds and Visibility OK 1017 No Significant change USCC 140700Z 30001MPS CAVOK 30/12 Q1017 R27/000060 NOSIG RMK QFE743
VFR 30°C / 13°C 360º variable 310º to 030º 4kt 9700m - Clouds and Visibility OK 1017 No Significant change USCC 140630Z 36002MPS 310V030 CAVOK 30/13 Q1017 R27/000060 NOSIG RMK QFE743
VFR 29°C / 12°C 340º 4kt 9700m - Clouds and Visibility OK 1017 No Significant change USCC 140600Z 34002MPS CAVOK 29/12 Q1017 R27/000060 NOSIG RMK QFE743
VFR 29°C / 14°C 340º 4kt 9700m - Clouds and Visibility OK 1017 No Significant change USCC 140530Z 34002MPS CAVOK 29/14 Q1017 R27/000060 NOSIG RMK QFE743
VFR 28°C / 15°C 330º 6kt 9700m - Clouds and Visibility OK 1017 No Significant change USCC 140500Z 33003MPS CAVOK 28/15 Q1017 R27/000060 NOSIG RMK QFE743
VFR 27°C / 16°C 310º 4kt 9700m - Clouds and Visibility OK 1017 No Significant change USCC 140430Z 31002MPS CAVOK 27/16 Q1017 R27/000060 NOSIG RMK QFE743
VFR 26°C / 16°C 320º 6kt 9700m - Clouds and Visibility OK 1017 No Significant change USCC 140400Z 32003MPS CAVOK 26/16 Q1017 R27/000060 NOSIG RMK QFE743
VFR 26°C / 15°C 290º 6kt 9700m - Clouds and Visibility OK 1017 No Significant change USCC 140330Z 29003MPS CAVOK 26/15 Q1017 R27/000060 NOSIG RMK QFE743
VFR 25°C / 15°C 290º 6kt 9700m - Clouds and Visibility OK 1017 No Significant change USCC 140300Z 29003MPS CAVOK 25/15 Q1017 R27/000060 NOSIG RMK QFE743
VFR 23°C / 15°C 280º 4kt 9700m - Clouds and Visibility OK 1017 No Significant change USCC 140230Z 28002MPS CAVOK 23/15 Q1017 R27/000060 NOSIG RMK QFE743
VFR 22°C / 15°C 280º 6kt 9700m - Clouds and Visibility OK 1017 No Significant change USCC 140200Z 28003MPS CAVOK 22/15 Q1017 R27/000060 NOSIG RMK QFE743
VFR 21°C / 14°C 270º 6kt 9700m - Clouds and Visibility OK 1017 No Significant change USCC 140130Z 27003MPS CAVOK 21/14 Q1017 R27/000060 NOSIG RMK QFE743
VFR 20°C / 14°C 280º 6kt 9700m - Clouds and Visibility OK 1017 No Significant change USCC 140100Z 28003MPS CAVOK 20/14 Q1017 R27/000060 NOSIG RMK QFE743
VFR 19°C / 14°C 270º 8kt 9700m - Clouds and Visibility OK 1017 No Significant change USCC 140030Z 27004MPS CAVOK 19/14 Q1017 R27/000060 NOSIG RMK QFE743
VFR 17°C / 13°C 270º 4kt 9700m - Clouds and Visibility OK 1017 No Significant change USCC 140000Z 27002MPS CAVOK 17/13 Q1017 R27/000060 NOSIG RMK QFE743
VFR 19°C / 12°C 250º 4kt 9700m - Clouds and Visibility OK 1017 No Significant change USCC 132330Z 25002MPS CAVOK 19/12 Q1017 R27/000060 NOSIG RMK QFE743
VFR 19°C / 13°C 230º 4kt 9700m - Clouds and Visibility OK 1017 No Significant change USCC 132300Z 23002MPS CAVOK 19/13 Q1017 R27/000060 NOSIG RMK QFE743

VFR

31°C / 11°C

[Più]
Vento 280º 6kt
Visibilità 9700m
Meteo -
Nuvole Clouds and Visibility OK
Pressione 1016
Cambiamento No Significant change
Grezzo USCC 141030Z 28003MPS CAVOK 31/11 Q1016 R27/000060 NOSIG RMK QFE742

VFR

31°C / 12°C

[Più]
Vento 280º 6kt
Visibilità 9700m
Meteo -
Nuvole Clouds and Visibility OK
Pressione 1016
Cambiamento No Significant change
Grezzo USCC 141000Z 28003MPS CAVOK 31/12 Q1016 R27/000060 NOSIG RMK QFE742

VFR

30°C / 12°C

[Più]
Vento 320º 6kt
Visibilità 9700m
Meteo -
Nuvole Clouds and Visibility OK
Pressione 1016
Cambiamento No Significant change
Grezzo USCC 140930Z 32003MPS CAVOK 30/12 Q1016 R27/000060 NOSIG RMK QFE742

VFR

30°C / 12°C

[Più]
Vento 310º 6kt
Visibilità 9700m
Meteo -
Nuvole Clouds and Visibility OK
Pressione 1016
Cambiamento No Significant change
Grezzo USCC 140900Z 31003MPS CAVOK 30/12 Q1016 R27/000060 NOSIG RMK QFE742

VFR

30°C / 12°C

[Più]
Vento 310º variable 270º to 340º 6kt
Visibilità 9700m
Meteo -
Nuvole Clouds and Visibility OK
Pressione 1017
Cambiamento No Significant change
Grezzo USCC 140830Z 31003MPS 270V340 CAVOK 30/12 Q1017 R27/000060 NOSIG RMK QFE742

VFR

31°C / 13°C

[Più]
Vento 260º variable 230º to 310º 6kt
Visibilità 9700m
Meteo -
Nuvole Clouds and Visibility OK
Pressione 1017
Cambiamento No Significant change
Grezzo USCC 140800Z 26003MPS 230V310 CAVOK 31/13 Q1017 R27/000060 NOSIG RMK QFE742

VFR

30°C / 12°C

[Più]
Vento 290º 6kt
Visibilità 9700m
Meteo -
Nuvole Clouds and Visibility OK
Pressione 1017
Cambiamento No Significant change
Grezzo USCC 140730Z 29003MPS CAVOK 30/12 Q1017 R27/000060 NOSIG RMK QFE742

VFR

30°C / 12°C

[Più]
Vento 300º 2kt
Visibilità 9700m
Meteo -
Nuvole Clouds and Visibility OK
Pressione 1017
Cambiamento No Significant change
Grezzo USCC 140700Z 30001MPS CAVOK 30/12 Q1017 R27/000060 NOSIG RMK QFE743

VFR

30°C / 13°C

[Più]
Vento 360º variable 310º to 030º 4kt
Visibilità 9700m
Meteo -
Nuvole Clouds and Visibility OK
Pressione 1017
Cambiamento No Significant change
Grezzo USCC 140630Z 36002MPS 310V030 CAVOK 30/13 Q1017 R27/000060 NOSIG RMK QFE743

VFR

29°C / 12°C

[Più]
Vento 340º 4kt
Visibilità 9700m
Meteo -
Nuvole Clouds and Visibility OK
Pressione 1017
Cambiamento No Significant change
Grezzo USCC 140600Z 34002MPS CAVOK 29/12 Q1017 R27/000060 NOSIG RMK QFE743

VFR

29°C / 14°C

[Più]
Vento 340º 4kt
Visibilità 9700m
Meteo -
Nuvole Clouds and Visibility OK
Pressione 1017
Cambiamento No Significant change
Grezzo USCC 140530Z 34002MPS CAVOK 29/14 Q1017 R27/000060 NOSIG RMK QFE743

VFR

28°C / 15°C

[Più]
Vento 330º 6kt
Visibilità 9700m
Meteo -
Nuvole Clouds and Visibility OK
Pressione 1017
Cambiamento No Significant change
Grezzo USCC 140500Z 33003MPS CAVOK 28/15 Q1017 R27/000060 NOSIG RMK QFE743

VFR

27°C / 16°C

[Più]
Vento 310º 4kt
Visibilità 9700m
Meteo -
Nuvole Clouds and Visibility OK
Pressione 1017
Cambiamento No Significant change
Grezzo USCC 140430Z 31002MPS CAVOK 27/16 Q1017 R27/000060 NOSIG RMK QFE743

VFR

26°C / 16°C

[Più]
Vento 320º 6kt
Visibilità 9700m
Meteo -
Nuvole Clouds and Visibility OK
Pressione 1017
Cambiamento No Significant change
Grezzo USCC 140400Z 32003MPS CAVOK 26/16 Q1017 R27/000060 NOSIG RMK QFE743

VFR

26°C / 15°C

[Più]
Vento 290º 6kt
Visibilità 9700m
Meteo -
Nuvole Clouds and Visibility OK
Pressione 1017
Cambiamento No Significant change
Grezzo USCC 140330Z 29003MPS CAVOK 26/15 Q1017 R27/000060 NOSIG RMK QFE743

VFR

25°C / 15°C

[Più]
Vento 290º 6kt
Visibilità 9700m
Meteo -
Nuvole Clouds and Visibility OK
Pressione 1017
Cambiamento No Significant change
Grezzo USCC 140300Z 29003MPS CAVOK 25/15 Q1017 R27/000060 NOSIG RMK QFE743

VFR

23°C / 15°C

[Più]
Vento 280º 4kt
Visibilità 9700m
Meteo -
Nuvole Clouds and Visibility OK
Pressione 1017
Cambiamento No Significant change
Grezzo USCC 140230Z 28002MPS CAVOK 23/15 Q1017 R27/000060 NOSIG RMK QFE743

VFR

22°C / 15°C

[Più]
Vento 280º 6kt
Visibilità 9700m
Meteo -
Nuvole Clouds and Visibility OK
Pressione 1017
Cambiamento No Significant change
Grezzo USCC 140200Z 28003MPS CAVOK 22/15 Q1017 R27/000060 NOSIG RMK QFE743

VFR

21°C / 14°C

[Più]
Vento 270º 6kt
Visibilità 9700m
Meteo -
Nuvole Clouds and Visibility OK
Pressione 1017
Cambiamento No Significant change
Grezzo USCC 140130Z 27003MPS CAVOK 21/14 Q1017 R27/000060 NOSIG RMK QFE743

VFR

20°C / 14°C

[Più]
Vento 280º 6kt
Visibilità 9700m
Meteo -
Nuvole Clouds and Visibility OK
Pressione 1017
Cambiamento No Significant change
Grezzo USCC 140100Z 28003MPS CAVOK 20/14 Q1017 R27/000060 NOSIG RMK QFE743

VFR

19°C / 14°C

[Più]
Vento 270º 8kt
Visibilità 9700m
Meteo -
Nuvole Clouds and Visibility OK
Pressione 1017
Cambiamento No Significant change
Grezzo USCC 140030Z 27004MPS CAVOK 19/14 Q1017 R27/000060 NOSIG RMK QFE743

VFR

17°C / 13°C

[Più]
Vento 270º 4kt
Visibilità 9700m
Meteo -
Nuvole Clouds and Visibility OK
Pressione 1017
Cambiamento No Significant change
Grezzo USCC 140000Z 27002MPS CAVOK 17/13 Q1017 R27/000060 NOSIG RMK QFE743

VFR

19°C / 12°C

[Più]
Vento 250º 4kt
Visibilità 9700m
Meteo -
Nuvole Clouds and Visibility OK
Pressione 1017
Cambiamento No Significant change
Grezzo USCC 132330Z 25002MPS CAVOK 19/12 Q1017 R27/000060 NOSIG RMK QFE743

VFR

19°C / 13°C

[Più]
Vento 230º 4kt
Visibilità 9700m
Meteo -
Nuvole Clouds and Visibility OK
Pressione 1017
Cambiamento No Significant change
Grezzo USCC 132300Z 23002MPS CAVOK 19/13 Q1017 R27/000060 NOSIG RMK QFE743

TAF per 55.31°N 61.5°E (USCC)

From till


From till Wind 270º 6kt. Gust 19kt. Visibility 9700m. Nil Significant Cloud.

Grezzo: TAF USCC 140755Z 1409/1509 27003G10MPS CAVOK

Radar per 55.31°N 61.5°E

Pioviggine
Lieve
Moderato
Forte
Molto forte
Grandine

Il segnaposto è situato a 55.31°N 61.5°E. Le croci arancioni indicano i fulmini. Dati forniti da nowcast.de (disponibili in USA, Europa e Australia). La pioviggine o una leggera nevicata potrebbero essere invisibili per il radar. L'intensità delle precipitazioni è codificata a colori, che vanno dal turchese al rosso.

Tempo in atto per 55.31°N 61.5°E: immagine satellitare e pioggia

Il segnaposto è situato a 55.31°N 61.5°E. [Più]

L'immagine satellitare in tempo reale combina la luce visibile durante il giorno con la radiazione infrarossa durante la notte. Di notte l'immagine non è scura poiché i raggi infrarossi possono rilevare differenze di temperatura. Purtroppo, le nuvole basse e la nebbia sono difficili da distinguere dalla temperatura del suolo e possono pertanto essere quasi invisibili durante la notte. Le immagini satellitari Meteosat per l'Europa vengono aggiornate in tempo reale ogni 5 minuti. Le immagini GOES-16 / GOES-17 (Nord e Sud America) e Himawari (Asia) vengono aggiornate ogni 10 minuti.

Le precipitazioni sono stimate da radar e satelliti. I calcoli delle precipitazioni dai satelliti sono meno accurati di notte che durante il giorno.

© 2024 meteoblue, NOAA Satellites GOES-16 and EUMETSAT. Fulminazioni fornite da nowcast.

Tornare su
×
Salve,
sembra che stiate usando un blocco degli annunci.

La pubblicità è essenziale per mantenere il nostro sito Web gratuito con dettagli e accuratezza unici.

Si prega di inserire www.meteoblue.com nella whitelist del vostro blocco degli annunci o di considerare l'acquisto di uno dei nostri prodotti:

Avete già un abbonamento?
Allora per favore eseguite il login.